METAR Data
IDs: Format: Raw Decoded Include TAF

Data at: 0104 UTC 06 Dec 2019

KBBP 060055Z AUTO 00000KT 10SM CLR 03/00 A3018 RMK AO2
KBBP 060035Z AUTO 00000KT 10SM CLR 04/01 A3017 RMK AO2
KBBP 060015Z AUTO 00000KT 10SM CLR 05/01 A3016 RMK AO2
KBBP 052355Z AUTO 00000KT 10SM CLR 04/01 A3016 RMK AO2
KBBP 052335Z AUTO 00000KT 10SM CLR 04/01 A3015 RMK AO2
KBBP 052315Z AUTO 00000KT 10SM CLR 06/01 A3014 RMK AO2
KBBP 052255Z AUTO 00000KT 10SM CLR 08/02 A3013 RMK AO2
KBBP 052235Z AUTO 00000KT 10SM CLR 10/00 A3012 RMK AO2
KBBP 052215Z AUTO 00000KT 10SM CLR 12/00 A3011 RMK AO2
KBBP 052155Z AUTO 00000KT 10SM CLR 15/M02 A3010 RMK AO2
KBBP 052135Z AUTO 00000KT 10SM CLR 15/M02 A3010 RMK AO2
KBBP 052115Z AUTO 30003KT 10SM CLR 16/M02 A3009 RMK AO2
KBBP 052055Z AUTO 30006KT 10SM CLR 16/M02 A3009 RMK AO2
KBBP 052035Z AUTO 29004KT 10SM CLR 16/M03 A3008 RMK AO2
KBBP 052015Z AUTO 32006KT 10SM CLR 16/M02 A3008 RMK AO2
KBBP 051955Z AUTO 29003KT 10SM CLR 16/M02 A3007 RMK AO2
KBBP 051935Z AUTO 00000KT 10SM CLR 15/M02 A3008 RMK AO2
KBBP 051915Z AUTO 22004KT 10SM CLR 15/M02 A3008 RMK AO2
KBBP 051855Z AUTO 25005KT 10SM CLR 15/M02 A3008 RMK AO2
KBBP 051835Z AUTO 27003KT 10SM CLR 15/M02 A3008 RMK AO2
KBBP 051815Z AUTO 31006KT 10SM CLR 15/M02 A3008 RMK AO2
KBBP 051755Z AUTO 32007KT 10SM CLR 14/M02 A3009 RMK AO2
KBBP 051735Z AUTO 33006KT 10SM CLR 13/M02 A3010 RMK AO2
KBBP 051715Z AUTO 29003KT 10SM CLR 13/M02 A3010 RMK AO2
KBBP 051655Z AUTO 00000KT 10SM CLR 12/M02 A3011 RMK AO2
KBBP 051635Z AUTO 31003KT 10SM CLR 12/M01 A3011 RMK AO2
KBBP 051615Z AUTO 02005KT 10SM CLR 12/M01 A3010 RMK AO2
KBBP 051555Z AUTO 03008KT 10SM CLR 12/M01 A3010 RMK AO2
KBBP 051535Z AUTO 02008KT 10SM CLR 11/00 A3010 RMK AO2
KBBP 051515Z AUTO 01007KT 10SM CLR 10/00 A3010 RMK AO2
KBBP 051455Z AUTO 36004KT 10SM CLR 08/00 A3010 RMK AO2
KBBP 051435Z AUTO 36004KT 10SM CLR 07/00 A3009 RMK AO2
KBBP 051415Z AUTO 36004KT 10SM CLR 07/00 A3008 RMK AO2
KBBP 051355Z AUTO 00000KT 10SM CLR 05/01 A3008 RMK AO2
KBBP 051335Z AUTO 00000KT 10SM CLR 05/01 A3006 RMK AO2
KBBP 051315Z AUTO 00000KT 10SM CLR 04/00 A3005 RMK AO2
KBBP 051255Z AUTO 33003KT 10SM CLR 03/00 A3004 RMK AO2
KBBP 051235Z AUTO 31004KT 10SM CLR 01/00 A3002 RMK AO2
KBBP 051215Z AUTO 00000KT 10SM CLR 02/00 A3001 RMK AO2
KBBP 051155Z AUTO 00000KT 10SM CLR 01/M01 A2999 RMK AO2
KBBP 051135Z AUTO 00000KT 10SM CLR 02/00 A2998 RMK AO2
KBBP 051115Z AUTO 30003KT 10SM CLR 02/M01 A2996 RMK AO2
KBBP 051055Z AUTO 32003KT 10SM CLR 02/M01 A2995 RMK AO2
KBBP 051035Z AUTO 00000KT 10SM CLR 04/00 A2993 RMK AO2
KBBP 051015Z AUTO 29004KT 10SM CLR 06/00 A2992 RMK AO2
KBBP 050955Z AUTO 27005KT 10SM CLR 05/00 A2991 RMK AO2
KBBP 050935Z AUTO 27004KT 10SM CLR 05/00 A2990 RMK AO2
KBBP 050915Z AUTO 26004KT 10SM CLR 05/00 A2989 RMK AO2
KBBP 050855Z AUTO 25004KT 10SM CLR 05/00 A2988 RMK AO2
KBBP 050815Z AUTO 25005KT 10SM CLR 06/00 A2987 RMK AO2
KBBP 050755Z AUTO 25005KT 10SM CLR 06/00 A2986 RMK AO2
KBBP 050735Z AUTO 25005KT 10SM CLR 06/00 A2985 RMK AO2
KBBP 050715Z AUTO 25005KT 10SM CLR 06/00 A2985 RMK AO2
KBBP 050655Z AUTO 25004KT 10SM CLR 06/00 A2984 RMK AO2
KBBP 050635Z AUTO 24004KT 10SM CLR 06/00 A2984 RMK AO2
KBBP 050615Z AUTO 24004KT 10SM CLR 07/01 A2984 RMK AO2
KBBP 050555Z AUTO 23005KT 10SM CLR 06/01 A2983 RMK AO2
KBBP 050535Z AUTO 23006KT 10SM CLR 06/01 A2983 RMK AO2
KBBP 050515Z AUTO 24005KT 10SM CLR 05/01 A2983 RMK AO2
KBBP 050455Z AUTO 22004KT 10SM CLR 05/01 A2983 RMK AO2
KBBP 050435Z AUTO 22004KT 10SM CLR 05/01 A2982 RMK AO2
KBBP 050415Z AUTO 00000KT 10SM CLR 06/01 A2982 RMK AO2
KBBP 050355Z AUTO 23004KT 10SM CLR 07/01 A2981 RMK AO2
KBBP 050335Z AUTO 24004KT 10SM CLR 08/01 A2981 RMK AO2
KBBP 050315Z AUTO 25004KT 10SM CLR 08/01 A2980 RMK AO2
KBBP 050255Z AUTO 26003KT 10SM CLR 07/01 A2980 RMK AO2
KBBP 050235Z AUTO 25005KT 10SM CLR 08/01 A2979 RMK AO2
KBBP 050215Z AUTO 24006KT 10SM CLR 08/01 A2979 RMK AO2
KBBP 050155Z AUTO 24005KT 10SM CLR 09/01 A2979 RMK AO2
KBBP 050135Z AUTO 24004KT 10SM CLR 10/01 A2979 RMK AO2
KBBP 050115Z AUTO 22008KT 10SM CLR 10/01 A2978 RMK AO2
KBBP 050055Z AUTO 22005KT 10SM CLR 10/01 A2978 RMK AO2
KBBP 050015Z AUTO 23007KT 10SM CLR 10/01 A2977 RMK AO2
KBBP 042355Z AUTO 22007KT 10SM CLR 11/01 A2976 RMK AO2
KBBP 042335Z AUTO 23005KT 10SM CLR 11/01 A2976 RMK AO2
KBBP 042315Z AUTO 24005KT 10SM CLR 11/00 A2976 RMK AO2
KBBP 042255Z AUTO 25005KT 10SM CLR 12/00 A2976 RMK AO2
KBBP 042235Z AUTO 25006KT 10SM CLR 12/00 A2975 RMK AO2
KBBP 042215Z AUTO 24005KT 10SM CLR 13/00 A2974 RMK AO2
KBBP 042155Z AUTO 25005KT 10SM CLR 13/00 A2974 RMK AO2
KBBP 042135Z AUTO 25007KT 10SM CLR 14/00 A2973 RMK AO2
KBBP 042115Z AUTO 24010KT 10SM CLR 15/00 A2973 RMK AO2
KBBP 042055Z AUTO 26010G15KT 10SM CLR 15/00 A2973 RMK AO2
KBBP 042035Z AUTO 25008G18KT 10SM CLR 15/00 A2973 RMK AO2
KBBP 042015Z AUTO 24009G19KT 10SM CLR 15/00 A2972 RMK AO2
KBBP 041955Z AUTO 24009KT 10SM CLR 15/00 A2972 RMK AO2
KBBP 041935Z AUTO 24010KT 10SM CLR 15/00 A2972 RMK AO2
KBBP 041915Z AUTO 24008KT 10SM CLR 15/00 A2972 RMK AO2
KBBP 041855Z AUTO 23008KT 10SM CLR 15/00 A2972 RMK AO2
KBBP 041835Z AUTO 28012G16KT 10SM CLR 15/00 A2972 RMK AO2
KBBP 041815Z AUTO 24007KT 10SM CLR 14/00 A2973 RMK AO2
KBBP 041755Z AUTO 23007KT 10SM CLR 13/00 A2974 RMK AO2
KBBP 041735Z AUTO 26007KT 224V284 10SM CLR 13/M01 A2975 RMK AO2
KBBP 041715Z AUTO 23009KT 10SM CLR 12/M01 A2977 RMK AO2
KBBP 041655Z AUTO 25003KT 10SM CLR 12/M01 A2978 RMK AO2
KBBP 041635Z AUTO 00000KT 10SM CLR 11/M01 A2979 RMK AO2
KBBP 041615Z AUTO 27004KT 10SM CLR 10/00 A2981 RMK AO2
KBBP 041555Z AUTO 26004KT 10SM CLR 10/01 A2982 RMK AO2
KBBP 041535Z AUTO 22003KT 10SM CLR 08/01 A2982 RMK AO2
KBBP 041515Z AUTO 00000KT 10SM CLR 07/02 A2982 RMK AO2
KBBP 041455Z AUTO 28003KT 10SM CLR 07/02 A2984 RMK AO2
KBBP 041435Z AUTO 31003KT 10SM CLR 06/02 A2982 RMK AO2
KBBP 041415Z AUTO 28004KT 10SM CLR 05/02 A2982 RMK AO2
KBBP 041355Z AUTO 25004KT 10SM CLR 04/02 A2980 RMK AO2
KBBP 041335Z AUTO 00000KT 10SM CLR 03/02 A2980 RMK AO2
KBBP 041315Z AUTO 00000KT 10SM CLR 02/01 A2979 RMK AO2